sensor_id;sensor_type;location;lat;lon;timestamp;P1;durP1;ratioP1;P2;durP2;ratioP2
20894;SDS011;10607;42.066;24.742;2023-01-10T00:01:13;131.50;;;57.00;;
20894;SDS011;10607;42.066;24.742;2023-01-10T00:03:38;113.40;;;54.07;;
20894;SDS011;10607;42.066;24.742;2023-01-10T00:06:04;132.30;;;55.70;;
20894;SDS011;10607;42.066;24.742;2023-01-10T00:08:29;131.30;;;54.83;;
20894;SDS011;10607;42.066;24.742;2023-01-10T00:10:54;135.47;;;56.23;;
20894;SDS011;10607;42.066;24.742;2023-01-10T00:13:19;131.97;;;55.83;;
20894;SDS011;10607;42.066;24.742;2023-01-10T00:15:48;143.63;;;57.57;;
20894;SDS011;10607;42.066;24.742;2023-01-10T00:18:14;136.07;;;56.57;;
20894;SDS011;10607;42.066;24.742;2023-01-10T00:20:39;121.40;;;56.63;;
20894;SDS011;10607;42.066;24.742;2023-01-10T00:23:04;133.57;;;56.10;;
20894;SDS011;10607;42.066;24.742;2023-01-10T00:25:30;137.57;;;54.50;;
20894;SDS011;10607;42.066;24.742;2023-01-10T00:27:58;136.37;;;57.27;;
20894;SDS011;10607;42.066;24.742;2023-01-10T00:30:38;136.30;;;55.23;;
20894;SDS011;10607;42.066;24.742;2023-01-10T00:33:04;129.17;;;56.53;;
20894;SDS011;10607;42.066;24.742;2023-01-10T00:35:30;138.97;;;57.67;;
20894;SDS011;10607;42.066;24.742;2023-01-10T00:37:55;133.80;;;55.57;;
20894;SDS011;10607;42.066;24.742;2023-01-10T00:40:29;128.50;;;57.70;;
20894;SDS011;10607;42.066;24.742;2023-01-10T00:42:54;132.57;;;56.90;;
20894;SDS011;10607;42.066;24.742;2023-01-10T00:45:38;130.30;;;57.33;;
20894;SDS011;10607;42.066;24.742;2023-01-10T00:48:04;130.50;;;57.03;;
20894;SDS011;10607;42.066;24.742;2023-01-10T00:50:29;134.70;;;55.87;;
20894;SDS011;10607;42.066;24.742;2023-01-10T00:52:54;137.97;;;56.63;;
20894;SDS011;10607;42.066;24.742;2023-01-10T00:55:20;132.40;;;56.43;;
20894;SDS011;10607;42.066;24.742;2023-01-10T00:57:45;129.40;;;55.00;;
20894;SDS011;10607;42.066;24.742;2023-01-10T01:00:10;132.10;;;54.77;;
20894;SDS011;10607;42.066;24.742;2023-01-10T01:02:36;142.17;;;55.43;;
20894;SDS011;10607;42.066;24.742;2023-01-10T01:05:01;127.17;;;55.73;;
20894;SDS011;10607;42.066;24.742;2023-01-10T01:07:26;129.13;;;56.50;;
20894;SDS011;10607;42.066;24.742;2023-01-10T01:09:52;129.40;;;55.43;;
20894;SDS011;10607;42.066;24.742;2023-01-10T01:12:36;127.00;;;54.13;;
20894;SDS011;10607;42.066;24.742;2023-01-10T01:15:01;134.33;;;56.17;;
20894;SDS011;10607;42.066;24.742;2023-01-10T01:17:26;135.77;;;56.20;;
20894;SDS011;10607;42.066;24.742;2023-01-10T01:19:51;134.63;;;54.70;;
20894;SDS011;10607;42.066;24.742;2023-01-10T01:22:17;141.57;;;56.43;;
20894;SDS011;10607;42.066;24.742;2023-01-10T01:24:42;141.13;;;57.10;;
20894;SDS011;10607;42.066;24.742;2023-01-10T01:27:08;144.70;;;59.80;;
20894;SDS011;10607;42.066;24.742;2023-01-10T01:29:33;155.47;;;59.43;;
20894;SDS011;10607;42.066;24.742;2023-01-10T01:31:58;159.20;;;62.50;;
20894;SDS011;10607;42.066;24.742;2023-01-10T01:34:23;158.60;;;62.17;;
20894;SDS011;10607;42.066;24.742;2023-01-10T01:36:49;158.77;;;61.93;;
20894;SDS011;10607;42.066;24.742;2023-01-10T01:39:15;149.00;;;59.57;;
20894;SDS011;10607;42.066;24.742;2023-01-10T01:41:40;150.57;;;61.27;;
20894;SDS011;10607;42.066;24.742;2023-01-10T01:44:21;154.90;;;61.67;;
20894;SDS011;10607;42.066;24.742;2023-01-10T01:46:48;146.33;;;59.67;;
20894;SDS011;10607;42.066;24.742;2023-01-10T01:49:15;155.10;;;61.07;;
20894;SDS011;10607;42.066;24.742;2023-01-10T01:51:43;140.73;;;57.50;;
20894;SDS011;10607;42.066;24.742;2023-01-10T01:54:10;143.20;;;56.53;;
20894;SDS011;10607;42.066;24.742;2023-01-10T01:59:10;135.77;;;54.40;;
20894;SDS011;10607;42.066;24.742;2023-01-10T02:01:37;137.70;;;55.23;;
20894;SDS011;10607;42.066;24.742;2023-01-10T02:04:18;135.30;;;55.77;;
20894;SDS011;10607;42.066;24.742;2023-01-10T02:06:45;140.27;;;55.13;;
20894;SDS011;10607;42.066;24.742;2023-01-10T02:09:20;130.87;;;54.27;;
20894;SDS011;10607;42.066;24.742;2023-01-10T02:11:46;121.67;;;51.87;;
20894;SDS011;10607;42.066;24.742;2023-01-10T02:14:11;129.60;;;54.27;;
20894;SDS011;10607;42.066;24.742;2023-01-10T02:16:38;125.87;;;54.23;;
20894;SDS011;10607;42.066;24.742;2023-01-10T02:19:04;122.13;;;51.70;;
20894;SDS011;10607;42.066;24.742;2023-01-10T02:26:39;130.90;;;53.20;;
20894;SDS011;10607;42.066;24.742;2023-01-10T02:41:44;69.00;;;29.03;;
20894;SDS011;10607;42.066;24.742;2023-01-10T02:44:16;69.37;;;26.67;;
20894;SDS011;10607;42.066;24.742;2023-01-10T02:46:43;74.07;;;28.37;;
20894;SDS011;10607;42.066;24.742;2023-01-10T02:49:09;61.93;;;27.23;;
20894;SDS011;10607;42.066;24.742;2023-01-10T02:51:34;70.53;;;27.80;;
20894;SDS011;10607;42.066;24.742;2023-01-10T02:54:05;123.53;;;51.93;;
20894;SDS011;10607;42.066;24.742;2023-01-10T03:06:53;155.30;;;60.90;;
20894;SDS011;10607;42.066;24.742;2023-01-10T03:09:27;148.73;;;58.77;;
20894;SDS011;10607;42.066;24.742;2023-01-10T03:11:55;147.23;;;57.80;;
20894;SDS011;10607;42.066;24.742;2023-01-10T03:14:24;163.33;;;62.43;;
20894;SDS011;10607;42.066;24.742;2023-01-10T03:16:57;194.03;;;70.27;;
20894;SDS011;10607;42.066;24.742;2023-01-10T03:19:26;183.53;;;70.90;;
20894;SDS011;10607;42.066;24.742;2023-01-10T03:21:55;182.27;;;64.43;;
20894;SDS011;10607;42.066;24.742;2023-01-10T03:24:31;179.13;;;64.50;;
20894;SDS011;10607;42.066;24.742;2023-01-10T03:32:21;152.10;;;58.63;;
20894;SDS011;10607;42.066;24.742;2023-01-10T03:34:48;144.50;;;55.17;;
20894;SDS011;10607;42.066;24.742;2023-01-10T03:37:18;150.37;;;58.77;;
20894;SDS011;10607;42.066;24.742;2023-01-10T03:42:18;139.77;;;52.93;;
20894;SDS011;10607;42.066;24.742;2023-01-10T03:49:52;168.90;;;62.57;;
20894;SDS011;10607;42.066;24.742;2023-01-10T03:52:18;171.07;;;66.67;;
20894;SDS011;10607;42.066;24.742;2023-01-10T03:54:44;164.20;;;63.57;;
20894;SDS011;10607;42.066;24.742;2023-01-10T03:57:16;154.83;;;60.80;;
20894;SDS011;10607;42.066;24.742;2023-01-10T03:59:42;153.33;;;59.87;;
20894;SDS011;10607;42.066;24.742;2023-01-10T04:02:07;147.73;;;62.00;;
20894;SDS011;10607;42.066;24.742;2023-01-10T04:04:32;153.23;;;60.67;;
20894;SDS011;10607;42.066;24.742;2023-01-10T04:06:58;159.20;;;60.23;;
20894;SDS011;10607;42.066;24.742;2023-01-10T04:09:23;119.07;;;49.53;;
20894;SDS011;10607;42.066;24.742;2023-01-10T04:11:48;104.73;;;42.90;;
20894;SDS011;10607;42.066;24.742;2023-01-10T04:14:13;84.20;;;34.70;;
20894;SDS011;10607;42.066;24.742;2023-01-10T04:16:39;94.77;;;38.10;;
20894;SDS011;10607;42.066;24.742;2023-01-10T04:19:04;83.27;;;34.30;;
20894;SDS011;10607;42.066;24.742;2023-01-10T04:21:29;82.70;;;35.03;;
20894;SDS011;10607;42.066;24.742;2023-01-10T04:23:55;83.10;;;35.57;;
20894;SDS011;10607;42.066;24.742;2023-01-10T04:26:20;85.00;;;35.53;;
20894;SDS011;10607;42.066;24.742;2023-01-10T04:28:45;77.33;;;34.33;;
20894;SDS011;10607;42.066;24.742;2023-01-10T04:31:10;90.83;;;37.47;;
20894;SDS011;10607;42.066;24.742;2023-01-10T04:33:36;81.33;;;34.23;;
20894;SDS011;10607;42.066;24.742;2023-01-10T04:36:03;78.23;;;30.27;;
20894;SDS011;10607;42.066;24.742;2023-01-10T04:38:28;84.77;;;33.80;;
20894;SDS011;10607;42.066;24.742;2023-01-10T04:40:54;76.53;;;32.20;;
20894;SDS011;10607;42.066;24.742;2023-01-10T04:43:19;150.53;;;59.03;;
20894;SDS011;10607;42.066;24.742;2023-01-10T04:45:45;154.30;;;59.63;;
20894;SDS011;10607;42.066;24.742;2023-01-10T04:48:10;170.93;;;63.80;;
20894;SDS011;10607;42.066;24.742;2023-01-10T04:50:35;161.00;;;58.30;;
20894;SDS011;10607;42.066;24.742;2023-01-10T04:53:01;179.80;;;66.63;;
20894;SDS011;10607;42.066;24.742;2023-01-10T04:55:26;183.87;;;66.80;;
20894;SDS011;10607;42.066;24.742;2023-01-10T04:57:51;182.23;;;68.07;;
20894;SDS011;10607;42.066;24.742;2023-01-10T05:00:16;167.50;;;66.60;;
20894;SDS011;10607;42.066;24.742;2023-01-10T05:02:42;187.20;;;62.27;;
20894;SDS011;10607;42.066;24.742;2023-01-10T05:05:11;179.77;;;63.53;;
20894;SDS011;10607;42.066;24.742;2023-01-10T05:07:37;178.13;;;63.97;;
20894;SDS011;10607;42.066;24.742;2023-01-10T05:10:03;176.43;;;63.67;;
20894;SDS011;10607;42.066;24.742;2023-01-10T05:12:28;187.70;;;63.73;;
20894;SDS011;10607;42.066;24.742;2023-01-10T05:14:54;174.07;;;64.57;;
20894;SDS011;10607;42.066;24.742;2023-01-10T05:17:19;178.20;;;64.73;;
20894;SDS011;10607;42.066;24.742;2023-01-10T05:19:44;174.50;;;64.33;;
20894;SDS011;10607;42.066;24.742;2023-01-10T05:22:10;182.87;;;68.10;;
20894;SDS011;10607;42.066;24.742;2023-01-10T05:24:35;191.83;;;68.40;;
20894;SDS011;10607;42.066;24.742;2023-01-10T05:27:01;204.43;;;71.03;;
20894;SDS011;10607;42.066;24.742;2023-01-10T05:29:26;200.90;;;71.60;;
20894;SDS011;10607;42.066;24.742;2023-01-10T05:31:51;205.23;;;69.33;;
20894;SDS011;10607;42.066;24.742;2023-01-10T05:34:17;201.27;;;72.53;;
20894;SDS011;10607;42.066;24.742;2023-01-10T05:36:43;194.00;;;70.80;;
20894;SDS011;10607;42.066;24.742;2023-01-10T05:39:08;206.40;;;70.43;;
20894;SDS011;10607;42.066;24.742;2023-01-10T05:41:33;193.87;;;70.90;;
20894;SDS011;10607;42.066;24.742;2023-01-10T05:43:59;200.80;;;69.33;;
20894;SDS011;10607;42.066;24.742;2023-01-10T05:46:24;193.03;;;67.23;;
20894;SDS011;10607;42.066;24.742;2023-01-10T05:48:50;174.53;;;66.30;;
20894;SDS011;10607;42.066;24.742;2023-01-10T05:51:16;192.43;;;64.93;;
20894;SDS011;10607;42.066;24.742;2023-01-10T05:53:41;199.33;;;77.80;;
20894;SDS011;10607;42.066;24.742;2023-01-10T05:56:07;165.10;;;62.57;;
20894;SDS011;10607;42.066;24.742;2023-01-10T05:58:33;171.70;;;68.47;;
20894;SDS011;10607;42.066;24.742;2023-01-10T06:00:58;149.47;;;59.60;;
20894;SDS011;10607;42.066;24.742;2023-01-10T06:03:23;135.77;;;60.03;;
20894;SDS011;10607;42.066;24.742;2023-01-10T06:05:50;107.17;;;46.43;;
20894;SDS011;10607;42.066;24.742;2023-01-10T06:08:16;116.23;;;51.07;;
20894;SDS011;10607;42.066;24.742;2023-01-10T06:10:41;187.17;;;68.17;;
20894;SDS011;10607;42.066;24.742;2023-01-10T06:13:07;176.53;;;71.27;;
20894;SDS011;10607;42.066;24.742;2023-01-10T06:15:34;194.87;;;74.40;;
20894;SDS011;10607;42.066;24.742;2023-01-10T06:17:59;190.73;;;79.13;;
20894;SDS011;10607;42.066;24.742;2023-01-10T06:20:24;199.50;;;73.80;;
20894;SDS011;10607;42.066;24.742;2023-01-10T06:22:50;194.90;;;75.37;;
20894;SDS011;10607;42.066;24.742;2023-01-10T06:25:15;195.20;;;78.17;;
20894;SDS011;10607;42.066;24.742;2023-01-10T06:27:41;208.20;;;79.67;;
20894;SDS011;10607;42.066;24.742;2023-01-10T06:30:07;223.17;;;81.40;;
20894;SDS011;10607;42.066;24.742;2023-01-10T06:32:32;241.03;;;78.97;;
20894;SDS011;10607;42.066;24.742;2023-01-10T06:34:58;224.10;;;79.60;;
20894;SDS011;10607;42.066;24.742;2023-01-10T06:37:23;231.60;;;77.60;;
20894;SDS011;10607;42.066;24.742;2023-01-10T06:39:48;226.50;;;77.60;;
20894;SDS011;10607;42.066;24.742;2023-01-10T06:42:15;231.23;;;77.33;;
20894;SDS011;10607;42.066;24.742;2023-01-10T06:44:40;216.20;;;77.63;;
20894;SDS011;10607;42.066;24.742;2023-01-10T06:47:05;214.90;;;74.47;;
20894;SDS011;10607;42.066;24.742;2023-01-10T06:49:31;206.27;;;74.33;;
20894;SDS011;10607;42.066;24.742;2023-01-10T06:51:56;220.07;;;72.83;;
20894;SDS011;10607;42.066;24.742;2023-01-10T06:54:21;205.93;;;71.03;;
20894;SDS011;10607;42.066;24.742;2023-01-10T06:56:47;214.97;;;73.23;;
20894;SDS011;10607;42.066;24.742;2023-01-10T06:59:13;213.37;;;72.97;;
20894;SDS011;10607;42.066;24.742;2023-01-10T07:01:38;226.50;;;73.33;;
20894;SDS011;10607;42.066;24.742;2023-01-10T07:04:03;206.73;;;75.50;;
20894;SDS011;10607;42.066;24.742;2023-01-10T07:06:28;220.17;;;74.67;;
20894;SDS011;10607;42.066;24.742;2023-01-10T07:08:54;209.07;;;72.53;;
20894;SDS011;10607;42.066;24.742;2023-01-10T07:11:20;211.77;;;73.40;;
20894;SDS011;10607;42.066;24.742;2023-01-10T07:13:45;214.37;;;75.57;;
20894;SDS011;10607;42.066;24.742;2023-01-10T07:16:11;232.70;;;76.63;;
20894;SDS011;10607;42.066;24.742;2023-01-10T07:18:37;239.30;;;79.70;;
20894;SDS011;10607;42.066;24.742;2023-01-10T07:21:03;221.23;;;75.20;;
20894;SDS011;10607;42.066;24.742;2023-01-10T07:23:29;223.13;;;74.57;;
20894;SDS011;10607;42.066;24.742;2023-01-10T07:25:58;215.20;;;72.37;;
20894;SDS011;10607;42.066;24.742;2023-01-10T07:28:26;216.03;;;72.63;;
20894;SDS011;10607;42.066;24.742;2023-01-10T07:30:51;216.90;;;66.83;;
20894;SDS011;10607;42.066;24.742;2023-01-10T07:33:16;208.70;;;70.10;;
20894;SDS011;10607;42.066;24.742;2023-01-10T07:35:42;214.87;;;70.73;;
20894;SDS011;10607;42.066;24.742;2023-01-10T07:38:07;216.83;;;70.17;;
20894;SDS011;10607;42.066;24.742;2023-01-10T07:40:33;238.93;;;70.73;;
20894;SDS011;10607;42.066;24.742;2023-01-10T07:42:59;223.63;;;65.40;;
20894;SDS011;10607;42.066;24.742;2023-01-10T07:45:25;211.63;;;66.33;;
20894;SDS011;10607;42.066;24.742;2023-01-10T07:47:59;197.00;;;61.27;;
20894;SDS011;10607;42.066;24.742;2023-01-10T07:50:26;209.33;;;65.03;;
20894;SDS011;10607;42.066;24.742;2023-01-10T07:52:51;209.33;;;66.77;;
20894;SDS011;10607;42.066;24.742;2023-01-10T07:55:16;195.50;;;63.57;;
20894;SDS011;10607;42.066;24.742;2023-01-10T07:57:42;194.33;;;60.83;;
20894;SDS011;10607;42.066;24.742;2023-01-10T08:00:07;200.40;;;61.37;;
20894;SDS011;10607;42.066;24.742;2023-01-10T08:02:33;190.00;;;61.57;;
20894;SDS011;10607;42.066;24.742;2023-01-10T08:04:58;169.00;;;57.83;;
20894;SDS011;10607;42.066;24.742;2023-01-10T08:07:23;169.47;;;52.20;;
20894;SDS011;10607;42.066;24.742;2023-01-10T08:09:49;155.40;;;50.83;;
20894;SDS011;10607;42.066;24.742;2023-01-10T08:12:14;158.13;;;51.00;;
20894;SDS011;10607;42.066;24.742;2023-01-10T08:14:39;157.97;;;49.40;;
20894;SDS011;10607;42.066;24.742;2023-01-10T08:17:04;151.37;;;50.07;;
20894;SDS011;10607;42.066;24.742;2023-01-10T08:19:30;161.97;;;49.83;;
20894;SDS011;10607;42.066;24.742;2023-01-10T08:21:55;133.67;;;48.90;;
20894;SDS011;10607;42.066;24.742;2023-01-10T08:24:20;144.80;;;50.90;;
20894;SDS011;10607;42.066;24.742;2023-01-10T08:26:46;163.10;;;53.43;;
20894;SDS011;10607;42.066;24.742;2023-01-10T08:29:11;169.30;;;54.90;;
20894;SDS011;10607;42.066;24.742;2023-01-10T08:31:36;184.80;;;56.40;;
20894;SDS011;10607;42.066;24.742;2023-01-10T08:34:01;172.00;;;57.63;;
20894;SDS011;10607;42.066;24.742;2023-01-10T08:36:27;176.53;;;59.70;;
20894;SDS011;10607;42.066;24.742;2023-01-10T08:38:54;174.83;;;56.87;;
20894;SDS011;10607;42.066;24.742;2023-01-10T08:41:19;174.83;;;58.10;;
20894;SDS011;10607;42.066;24.742;2023-01-10T08:43:47;152.10;;;55.70;;
20894;SDS011;10607;42.066;24.742;2023-01-10T08:46:12;152.43;;;53.53;;
20894;SDS011;10607;42.066;24.742;2023-01-10T08:48:38;159.73;;;57.67;;
20894;SDS011;10607;42.066;24.742;2023-01-10T08:51:04;168.23;;;56.73;;
20894;SDS011;10607;42.066;24.742;2023-01-10T08:53:29;141.57;;;54.40;;
20894;SDS011;10607;42.066;24.742;2023-01-10T08:55:56;153.07;;;53.23;;
20894;SDS011;10607;42.066;24.742;2023-01-10T08:58:21;138.13;;;51.77;;
20894;SDS011;10607;42.066;24.742;2023-01-10T09:00:46;132.83;;;48.87;;
20894;SDS011;10607;42.066;24.742;2023-01-10T09:03:13;128.83;;;48.03;;
20894;SDS011;10607;42.066;24.742;2023-01-10T09:05:39;134.80;;;51.20;;
20894;SDS011;10607;42.066;24.742;2023-01-10T09:08:04;147.67;;;51.63;;
20894;SDS011;10607;42.066;24.742;2023-01-10T09:10:29;142.97;;;51.20;;
20894;SDS011;10607;42.066;24.742;2023-01-10T09:12:56;143.10;;;51.83;;
20894;SDS011;10607;42.066;24.742;2023-01-10T09:15:25;129.13;;;51.33;;
20894;SDS011;10607;42.066;24.742;2023-01-10T09:17:58;128.27;;;49.33;;
20894;SDS011;10607;42.066;24.742;2023-01-10T09:20:24;122.40;;;47.23;;
20894;SDS011;10607;42.066;24.742;2023-01-10T09:22:50;123.77;;;48.20;;
20894;SDS011;10607;42.066;24.742;2023-01-10T09:25:15;110.67;;;44.37;;
20894;SDS011;10607;42.066;24.742;2023-01-10T09:27:40;133.83;;;48.70;;
20894;SDS011;10607;42.066;24.742;2023-01-10T09:30:06;127.10;;;46.77;;
20894;SDS011;10607;42.066;24.742;2023-01-10T09:32:31;128.37;;;48.83;;
20894;SDS011;10607;42.066;24.742;2023-01-10T09:34:57;119.50;;;48.87;;
20894;SDS011;10607;42.066;24.742;2023-01-10T09:37:22;141.43;;;53.03;;
20894;SDS011;10607;42.066;24.742;2023-01-10T09:39:47;132.07;;;51.57;;
20894;SDS011;10607;42.066;24.742;2023-01-10T09:52:25;139.13;;;55.00;;
20894;SDS011;10607;42.066;24.742;2023-01-10T09:54:52;140.27;;;54.20;;
20894;SDS011;10607;42.066;24.742;2023-01-10T09:57:19;124.20;;;52.43;;
20894;SDS011;10607;42.066;24.742;2023-01-10T09:59:45;144.93;;;54.37;;
20894;SDS011;10607;42.066;24.742;2023-01-10T10:02:22;123.00;;;53.63;;
20894;SDS011;10607;42.066;24.742;2023-01-10T10:04:55;120.73;;;50.10;;
20894;SDS011;10607;42.066;24.742;2023-01-10T10:07:23;111.47;;;47.70;;
20894;SDS011;10607;42.066;24.742;2023-01-10T10:09:49;101.53;;;46.27;;
20894;SDS011;10607;42.066;24.742;2023-01-10T10:14:48;110.67;;;45.77;;
20894;SDS011;10607;42.066;24.742;2023-01-10T10:25:13;111.93;;;44.67;;
20894;SDS011;10607;42.066;24.742;2023-01-10T10:27:44;106.07;;;43.13;;
20894;SDS011;10607;42.066;24.742;2023-01-10T10:30:13;95.33;;;41.13;;
20894;SDS011;10607;42.066;24.742;2023-01-10T10:35:13;94.20;;;39.83;;
20894;SDS011;10607;42.066;24.742;2023-01-10T10:37:40;91.33;;;41.23;;
20894;SDS011;10607;42.066;24.742;2023-01-10T10:42:36;98.07;;;43.47;;
20894;SDS011;10607;42.066;24.742;2023-01-10T10:47:31;101.97;;;43.20;;
20894;SDS011;10607;42.066;24.742;2023-01-10T10:52:41;114.83;;;45.77;;
20894;SDS011;10607;42.066;24.742;2023-01-10T10:55:11;117.47;;;46.40;;
20894;SDS011;10607;42.066;24.742;2023-01-10T10:57:36;111.80;;;45.47;;
20894;SDS011;10607;42.066;24.742;2023-01-10T11:00:03;112.63;;;46.43;;
20894;SDS011;10607;42.066;24.742;2023-01-10T11:02:30;117.03;;;45.00;;
20894;SDS011;10607;42.066;24.742;2023-01-10T11:04:59;122.97;;;46.60;;
20894;SDS011;10607;42.066;24.742;2023-01-10T11:07:31;115.47;;;50.07;;
20894;SDS011;10607;42.066;24.742;2023-01-10T11:09:58;127.23;;;50.60;;
20894;SDS011;10607;42.066;24.742;2023-01-10T11:12:43;116.93;;;47.37;;
20894;SDS011;10607;42.066;24.742;2023-01-10T11:15:12;114.40;;;47.47;;
20894;SDS011;10607;42.066;24.742;2023-01-10T11:18:04;116.40;;;45.23;;
20894;SDS011;10607;42.066;24.742;2023-01-10T11:20:30;122.87;;;47.03;;
20894;SDS011;10607;42.066;24.742;2023-01-10T11:22:55;119.63;;;48.63;;
20894;SDS011;10607;42.066;24.742;2023-01-10T11:25:21;119.93;;;48.40;;
20894;SDS011;10607;42.066;24.742;2023-01-10T11:27:50;118.67;;;48.40;;
20894;SDS011;10607;42.066;24.742;2023-01-10T11:30:23;109.67;;;45.30;;
20894;SDS011;10607;42.066;24.742;2023-01-10T11:35:36;93.47;;;43.63;;
20894;SDS011;10607;42.066;24.742;2023-01-10T11:40:28;93.20;;;43.17;;
20894;SDS011;10607;42.066;24.742;2023-01-10T11:42:55;100.47;;;43.77;;
20894;SDS011;10607;42.066;24.742;2023-01-10T11:45:21;93.07;;;41.07;;
20894;SDS011;10607;42.066;24.742;2023-01-10T11:50:30;76.23;;;38.43;;
20894;SDS011;10607;42.066;24.742;2023-01-10T11:52:56;68.23;;;35.83;;
20894;SDS011;10607;42.066;24.742;2023-01-10T11:55:25;70.67;;;33.27;;
20894;SDS011;10607;42.066;24.742;2023-01-10T11:58:08;63.90;;;33.90;;
20894;SDS011;10607;42.066;24.742;2023-01-10T12:00:45;69.90;;;32.23;;
20894;SDS011;10607;42.066;24.742;2023-01-10T12:05:55;86.63;;;45.83;;
20894;SDS011;10607;42.066;24.742;2023-01-10T12:08:26;72.67;;;36.90;;
20894;SDS011;10607;42.066;24.742;2023-01-10T12:10:56;68.67;;;33.93;;
20894;SDS011;10607;42.066;24.742;2023-01-10T12:13:22;70.30;;;33.80;;
20894;SDS011;10607;42.066;24.742;2023-01-10T12:15:47;67.53;;;35.53;;
20894;SDS011;10607;42.066;24.742;2023-01-10T12:18:13;68.27;;;33.10;;
20894;SDS011;10607;42.066;24.742;2023-01-10T12:20:45;70.60;;;36.27;;
20894;SDS011;10607;42.066;24.742;2023-01-10T12:23:12;65.13;;;33.17;;
20894;SDS011;10607;42.066;24.742;2023-01-10T12:25:41;60.50;;;29.73;;
20894;SDS011;10607;42.066;24.742;2023-01-10T12:28:12;58.23;;;29.37;;
20894;SDS011;10607;42.066;24.742;2023-01-10T12:30:41;52.33;;;27.23;;
20894;SDS011;10607;42.066;24.742;2023-01-10T12:33:13;56.37;;;28.43;;
20894;SDS011;10607;42.066;24.742;2023-01-10T12:35:46;57.77;;;28.77;;
20894;SDS011;10607;42.066;24.742;2023-01-10T12:38:19;71.30;;;30.87;;
20894;SDS011;10607;42.066;24.742;2023-01-10T12:41:06;81.77;;;32.80;;
20894;SDS011;10607;42.066;24.742;2023-01-10T12:43:34;74.30;;;33.40;;
20894;SDS011;10607;42.066;24.742;2023-01-10T12:46:20;75.47;;;33.27;;
20894;SDS011;10607;42.066;24.742;2023-01-10T12:51:45;82.60;;;39.20;;
20894;SDS011;10607;42.066;24.742;2023-01-10T12:54:14;87.33;;;42.23;;
20894;SDS011;10607;42.066;24.742;2023-01-10T12:56:40;87.27;;;40.63;;
20894;SDS011;10607;42.066;24.742;2023-01-10T13:01:53;86.57;;;37.37;;
20894;SDS011;10607;42.066;24.742;2023-01-10T13:04:20;86.03;;;37.33;;
20894;SDS011;10607;42.066;24.742;2023-01-10T13:06:47;85.20;;;36.80;;
20894;SDS011;10607;42.066;24.742;2023-01-10T13:09:19;81.10;;;36.70;;
20894;SDS011;10607;42.066;24.742;2023-01-10T13:14:21;89.27;;;37.73;;
20894;SDS011;10607;42.066;24.742;2023-01-10T13:16:49;77.07;;;37.87;;
20894;SDS011;10607;42.066;24.742;2023-01-10T13:21:45;94.70;;;44.13;;
20894;SDS011;10607;42.066;24.742;2023-01-10T13:29:11;79.43;;;35.97;;
20894;SDS011;10607;42.066;24.742;2023-01-10T13:31:40;77.33;;;36.27;;
20894;SDS011;10607;42.066;24.742;2023-01-10T13:34:06;78.90;;;36.60;;
20894;SDS011;10607;42.066;24.742;2023-01-10T13:36:56;70.77;;;33.73;;
20894;SDS011;10607;42.066;24.742;2023-01-10T14:06:10;48.07;;;25.57;;
20894;SDS011;10607;42.066;24.742;2023-01-10T14:08:36;49.53;;;25.30;;
20894;SDS011;10607;42.066;24.742;2023-01-10T14:11:06;44.70;;;24.30;;
20894;SDS011;10607;42.066;24.742;2023-01-10T14:13:31;49.13;;;24.57;;
20894;SDS011;10607;42.066;24.742;2023-01-10T14:15:57;47.17;;;24.10;;
20894;SDS011;10607;42.066;24.742;2023-01-10T14:21:00;55.30;;;27.50;;
20894;SDS011;10607;42.066;24.742;2023-01-10T14:23:28;52.00;;;27.10;;
20894;SDS011;10607;42.066;24.742;2023-01-10T14:25:55;54.77;;;30.43;;
20894;SDS011;10607;42.066;24.742;2023-01-10T14:28:25;65.77;;;31.23;;
20894;SDS011;10607;42.066;24.742;2023-01-10T14:33:28;64.60;;;34.53;;
20894;SDS011;10607;42.066;24.742;2023-01-10T14:35:55;78.43;;;38.00;;
20894;SDS011;10607;42.066;24.742;2023-01-10T14:38:23;75.47;;;37.00;;
20894;SDS011;10607;42.066;24.742;2023-01-10T14:40:50;64.93;;;34.23;;
20894;SDS011;10607;42.066;24.742;2023-01-10T14:43:17;54.83;;;29.83;;
20894;SDS011;10607;42.066;24.742;2023-01-10T14:48:25;47.00;;;27.73;;
20894;SDS011;10607;42.066;24.742;2023-01-10T14:51:36;48.40;;;26.03;;
20894;SDS011;10607;42.066;24.742;2023-01-10T14:53:36;53.50;;;26.23;;
20894;SDS011;10607;42.066;24.742;2023-01-10T14:56:02;48.60;;;27.90;;
20894;SDS011;10607;42.066;24.742;2023-01-10T14:58:27;47.97;;;27.17;;
20894;SDS011;10607;42.066;24.742;2023-01-10T15:00:53;53.90;;;28.73;;
20894;SDS011;10607;42.066;24.742;2023-01-10T15:03:20;58.93;;;33.90;;
20894;SDS011;10607;42.066;24.742;2023-01-10T15:05:46;352.30;;;126.73;;
20894;SDS011;10607;42.066;24.742;2023-01-10T15:10:42;88.30;;;49.67;;
20894;SDS011;10607;42.066;24.742;2023-01-10T15:13:09;91.07;;;51.40;;
20894;SDS011;10607;42.066;24.742;2023-01-10T15:15:37;90.10;;;50.00;;
20894;SDS011;10607;42.066;24.742;2023-01-10T15:18:15;100.77;;;52.83;;
20894;SDS011;10607;42.066;24.742;2023-01-10T15:20:42;92.43;;;45.70;;
20894;SDS011;10607;42.066;24.742;2023-01-10T15:23:11;54.53;;;29.93;;
20894;SDS011;10607;42.066;24.742;2023-01-10T15:25:37;43.50;;;26.90;;
20894;SDS011;10607;42.066;24.742;2023-01-10T15:28:03;41.30;;;24.97;;
20894;SDS011;10607;42.066;24.742;2023-01-10T15:30:30;47.70;;;27.20;;
20894;SDS011;10607;42.066;24.742;2023-01-10T15:32:57;40.57;;;24.73;;
20894;SDS011;10607;42.066;24.742;2023-01-10T15:35:25;43.93;;;23.77;;
20894;SDS011;10607;42.066;24.742;2023-01-10T15:37:55;41.57;;;24.80;;
20894;SDS011;10607;42.066;24.742;2023-01-10T15:40:22;40.53;;;23.13;;
20894;SDS011;10607;42.066;24.742;2023-01-10T15:42:48;37.23;;;21.27;;
20894;SDS011;10607;42.066;24.742;2023-01-10T15:45:29;36.33;;;21.77;;
20894;SDS011;10607;42.066;24.742;2023-01-10T15:48:01;34.87;;;21.20;;
20894;SDS011;10607;42.066;24.742;2023-01-10T15:50:37;38.30;;;23.40;;
20894;SDS011;10607;42.066;24.742;2023-01-10T15:53:09;40.97;;;23.27;;
20894;SDS011;10607;42.066;24.742;2023-01-10T15:58:14;44.27;;;26.10;;
20894;SDS011;10607;42.066;24.742;2023-01-10T16:00:44;55.17;;;30.97;;
20894;SDS011;10607;42.066;24.742;2023-01-10T16:03:19;65.13;;;34.13;;
20894;SDS011;10607;42.066;24.742;2023-01-10T16:05:49;102.97;;;50.13;;
20894;SDS011;10607;42.066;24.742;2023-01-10T16:08:15;139.70;;;60.27;;
20894;SDS011;10607;42.066;24.742;2023-01-10T16:10:41;113.73;;;52.20;;
20894;SDS011;10607;42.066;24.742;2023-01-10T16:13:09;138.17;;;59.90;;
20894;SDS011;10607;42.066;24.742;2023-01-10T16:15:55;141.00;;;67.70;;
20894;SDS011;10607;42.066;24.742;2023-01-10T16:18:21;138.00;;;62.73;;
20894;SDS011;10607;42.066;24.742;2023-01-10T16:20:47;161.30;;;75.50;;
20894;SDS011;10607;42.066;24.742;2023-01-10T16:23:34;122.73;;;62.70;;